sensor_id;sensor_type;location;lat;lon;timestamp;P1;durP1;ratioP1;P2;durP2;ratioP2
13455;SDS011;6800;50.940;6.940;2023-02-18T00:03:07;9.43;;;8.43;;
13455;SDS011;6800;50.940;6.940;2023-02-18T00:07:08;9.20;;;8.17;;
13455;SDS011;6800;50.940;6.940;2023-02-18T00:11:10;7.87;;;7.17;;
13455;SDS011;6800;50.940;6.940;2023-02-18T00:15:12;8.63;;;7.73;;
13455;SDS011;6800;50.940;6.940;2023-02-18T00:19:17;10.83;;;9.57;;
13455;SDS011;6800;50.940;6.940;2023-02-18T00:23:20;11.33;;;10.13;;
13455;SDS011;6800;50.940;6.940;2023-02-18T00:27:21;8.57;;;7.67;;
13455;SDS011;6800;50.940;6.940;2023-02-18T00:31:24;8.80;;;8.00;;
13455;SDS011;6800;50.940;6.940;2023-02-18T00:35:27;8.17;;;7.43;;
13455;SDS011;6800;50.940;6.940;2023-02-18T00:39:29;8.47;;;7.67;;
13455;SDS011;6800;50.940;6.940;2023-02-18T00:43:30;9.67;;;8.67;;
13455;SDS011;6800;50.940;6.940;2023-02-18T00:47:31;9.17;;;8.20;;
13455;SDS011;6800;50.940;6.940;2023-02-18T00:51:33;9.67;;;8.77;;
13455;SDS011;6800;50.940;6.940;2023-02-18T00:55:41;11.40;;;9.47;;
13455;SDS011;6800;50.940;6.940;2023-02-18T00:59:44;9.33;;;7.40;;
13455;SDS011;6800;50.940;6.940;2023-02-18T01:03:46;9.47;;;8.13;;
13455;SDS011;6800;50.940;6.940;2023-02-18T01:07:47;10.10;;;9.07;;
13455;SDS011;6800;50.940;6.940;2023-02-18T01:11:48;9.63;;;8.73;;
13455;SDS011;6800;50.940;6.940;2023-02-18T01:15:50;9.90;;;8.47;;
13455;SDS011;6800;50.940;6.940;2023-02-18T01:19:52;8.23;;;7.07;;
13455;SDS011;6800;50.940;6.940;2023-02-18T01:23:54;11.70;;;8.40;;
13455;SDS011;6800;50.940;6.940;2023-02-18T01:27:56;8.33;;;7.53;;
13455;SDS011;6800;50.940;6.940;2023-02-18T01:31:58;12.27;;;8.97;;
13455;SDS011;6800;50.940;6.940;2023-02-18T01:35:59;9.27;;;7.70;;
13455;SDS011;6800;50.940;6.940;2023-02-18T01:40:01;13.23;;;8.63;;
13455;SDS011;6800;50.940;6.940;2023-02-18T01:44:16;7.83;;;6.77;;
13455;SDS011;6800;50.940;6.940;2023-02-18T01:52:39;7.87;;;7.10;;
13455;SDS011;6800;50.940;6.940;2023-02-18T02:01:02;13.13;;;11.27;;
13455;SDS011;6800;50.940;6.940;2023-02-18T02:05:05;11.17;;;9.97;;
13455;SDS011;6800;50.940;6.940;2023-02-18T02:09:08;8.53;;;7.50;;
13455;SDS011;6800;50.940;6.940;2023-02-18T02:13:14;10.23;;;9.23;;
13455;SDS011;6800;50.940;6.940;2023-02-18T02:17:30;11.43;;;10.33;;
13455;SDS011;6800;50.940;6.940;2023-02-18T02:35:01;12.67;;;11.37;;
13455;SDS011;6800;50.940;6.940;2023-02-18T02:39:13;13.23;;;11.77;;
13455;SDS011;6800;50.940;6.940;2023-02-18T02:55:48;7.50;;;6.90;;
13455;SDS011;6800;50.940;6.940;2023-02-18T02:59:51;6.73;;;6.13;;
13455;SDS011;6800;50.940;6.940;2023-02-18T03:08:16;7.87;;;6.27;;
13455;SDS011;6800;50.940;6.940;2023-02-18T03:12:35;5.00;;;4.60;;
13455;SDS011;6800;50.940;6.940;2023-02-18T03:17:01;4.13;;;3.80;;
13455;SDS011;6800;50.940;6.940;2023-02-18T03:21:08;6.57;;;6.07;;
13455;SDS011;6800;50.940;6.940;2023-02-18T03:25:14;3.93;;;3.60;;
13455;SDS011;6800;50.940;6.940;2023-02-18T03:29:17;3.97;;;3.67;;
13455;SDS011;6800;50.940;6.940;2023-02-18T03:33:23;3.87;;;3.27;;
13455;SDS011;6800;50.940;6.940;2023-02-18T03:37:29;3.53;;;3.20;;
13455;SDS011;6800;50.940;6.940;2023-02-18T03:41:32;3.80;;;3.30;;
13455;SDS011;6800;50.940;6.940;2023-02-18T03:45:35;4.73;;;3.40;;
13455;SDS011;6800;50.940;6.940;2023-02-18T03:49:36;3.10;;;2.90;;
13455;SDS011;6800;50.940;6.940;2023-02-18T03:53:38;3.80;;;3.50;;
13455;SDS011;6800;50.940;6.940;2023-02-18T03:57:39;3.60;;;3.30;;
13455;SDS011;6800;50.940;6.940;2023-02-18T04:01:40;3.50;;;3.20;;
13455;SDS011;6800;50.940;6.940;2023-02-18T04:05:42;4.50;;;4.10;;
13455;SDS011;6800;50.940;6.940;2023-02-18T04:09:43;4.00;;;3.60;;
13455;SDS011;6800;50.940;6.940;2023-02-18T04:13:44;3.60;;;3.20;;
13455;SDS011;6800;50.940;6.940;2023-02-18T04:17:46;3.47;;;2.93;;
13455;SDS011;6800;50.940;6.940;2023-02-18T04:21:47;3.10;;;2.80;;
13455;SDS011;6800;50.940;6.940;2023-02-18T04:25:48;2.83;;;2.60;;
13455;SDS011;6800;50.940;6.940;2023-02-18T04:29:50;2.40;;;2.20;;
13455;SDS011;6800;50.940;6.940;2023-02-18T04:33:51;2.80;;;1.93;;
13455;SDS011;6800;50.940;6.940;2023-02-18T04:37:53;2.00;;;1.60;;
13455;SDS011;6800;50.940;6.940;2023-02-18T04:41:54;1.43;;;1.33;;
13455;SDS011;6800;50.940;6.940;2023-02-18T04:45:55;1.00;;;1.00;;
13455;SDS011;6800;50.940;6.940;2023-02-18T04:49:56;1.33;;;0.87;;
13455;SDS011;6800;50.940;6.940;2023-02-18T04:53:58;0.70;;;0.70;;
13455;SDS011;6800;50.940;6.940;2023-02-18T04:57:59;1.40;;;0.90;;
13455;SDS011;6800;50.940;6.940;2023-02-18T05:02:01;1.10;;;1.00;;
13455;SDS011;6800;50.940;6.940;2023-02-18T05:06:02;0.80;;;0.80;;
13455;SDS011;6800;50.940;6.940;2023-02-18T05:10:04;1.03;;;1.00;;
13455;SDS011;6800;50.940;6.940;2023-02-18T05:14:06;1.40;;;1.07;;
13455;SDS011;6800;50.940;6.940;2023-02-18T05:18:07;1.80;;;1.10;;
13455;SDS011;6800;50.940;6.940;2023-02-18T05:22:09;1.83;;;1.27;;
13455;SDS011;6800;50.940;6.940;2023-02-18T05:26:10;1.10;;;1.10;;
13455;SDS011;6800;50.940;6.940;2023-02-18T05:30:12;1.43;;;1.33;;
13455;SDS011;6800;50.940;6.940;2023-02-18T05:34:13;1.60;;;1.50;;
13455;SDS011;6800;50.940;6.940;2023-02-18T05:38:14;1.57;;;1.47;;
13455;SDS011;6800;50.940;6.940;2023-02-18T05:42:16;1.30;;;1.20;;
13455;SDS011;6800;50.940;6.940;2023-02-18T05:46:17;2.00;;;1.30;;
13455;SDS011;6800;50.940;6.940;2023-02-18T05:50:19;1.47;;;1.37;;
13455;SDS011;6800;50.940;6.940;2023-02-18T05:54:20;2.53;;;1.60;;
13455;SDS011;6800;50.940;6.940;2023-02-18T05:58:22;1.50;;;1.40;;
13455;SDS011;6800;50.940;6.940;2023-02-18T06:02:23;1.90;;;1.80;;
13455;SDS011;6800;50.940;6.940;2023-02-18T06:06:25;3.47;;;2.10;;
13455;SDS011;6800;50.940;6.940;2023-02-18T06:10:26;1.77;;;1.67;;
13455;SDS011;6800;50.940;6.940;2023-02-18T06:14:27;1.80;;;1.70;;
13455;SDS011;6800;50.940;6.940;2023-02-18T06:18:29;2.80;;;1.80;;
13455;SDS011;6800;50.940;6.940;2023-02-18T06:22:30;2.13;;;1.93;;
13455;SDS011;6800;50.940;6.940;2023-02-18T06:26:32;2.50;;;1.80;;
13455;SDS011;6800;50.940;6.940;2023-02-18T06:30:33;1.60;;;1.50;;
13455;SDS011;6800;50.940;6.940;2023-02-18T06:34:34;1.70;;;1.60;;
13455;SDS011;6800;50.940;6.940;2023-02-18T06:38:37;1.60;;;1.50;;
13455;SDS011;6800;50.940;6.940;2023-02-18T06:42:40;1.30;;;1.30;;
13455;SDS011;6800;50.940;6.940;2023-02-18T06:46:41;1.20;;;1.10;;
13455;SDS011;6800;50.940;6.940;2023-02-18T06:50:43;1.10;;;1.10;;
13455;SDS011;6800;50.940;6.940;2023-02-18T06:54:45;0.97;;;0.97;;
13455;SDS011;6800;50.940;6.940;2023-02-18T06:58:46;0.80;;;0.80;;
13455;SDS011;6800;50.940;6.940;2023-02-18T07:02:47;0.90;;;0.90;;
13455;SDS011;6800;50.940;6.940;2023-02-18T07:06:49;0.90;;;0.90;;
13455;SDS011;6800;50.940;6.940;2023-02-18T07:10:50;1.47;;;0.83;;
13455;SDS011;6800;50.940;6.940;2023-02-18T07:14:52;0.87;;;0.87;;
13455;SDS011;6800;50.940;6.940;2023-02-18T07:18:53;0.90;;;0.90;;
13455;SDS011;6800;50.940;6.940;2023-02-18T07:22:54;0.90;;;0.90;;
13455;SDS011;6800;50.940;6.940;2023-02-18T07:26:55;1.13;;;1.13;;
13455;SDS011;6800;50.940;6.940;2023-02-18T07:30:57;1.00;;;1.00;;
13455;SDS011;6800;50.940;6.940;2023-02-18T07:34:58;1.20;;;1.10;;
13455;SDS011;6800;50.940;6.940;2023-02-18T07:39:00;1.00;;;1.00;;
13455;SDS011;6800;50.940;6.940;2023-02-18T07:43:01;1.10;;;1.10;;
13455;SDS011;6800;50.940;6.940;2023-02-18T07:47:03;1.10;;;1.10;;
13455;SDS011;6800;50.940;6.940;2023-02-18T07:51:06;1.17;;;1.07;;
13455;SDS011;6800;50.940;6.940;2023-02-18T07:55:09;1.40;;;1.30;;
13455;SDS011;6800;50.940;6.940;2023-02-18T07:59:11;1.13;;;1.07;;
13455;SDS011;6800;50.940;6.940;2023-02-18T08:03:13;1.50;;;1.40;;
13455;SDS011;6800;50.940;6.940;2023-02-18T08:07:17;1.50;;;1.40;;
13455;SDS011;6800;50.940;6.940;2023-02-18T08:11:20;1.50;;;1.40;;
13455;SDS011;6800;50.940;6.940;2023-02-18T08:15:22;2.23;;;1.50;;
13455;SDS011;6800;50.940;6.940;2023-02-18T08:19:23;2.03;;;1.70;;
13455;SDS011;6800;50.940;6.940;2023-02-18T08:23:24;3.30;;;1.97;;
13455;SDS011;6800;50.940;6.940;2023-02-18T08:27:26;4.13;;;2.33;;
13455;SDS011;6800;50.940;6.940;2023-02-18T08:31:28;4.33;;;2.50;;
13455;SDS011;6800;50.940;6.940;2023-02-18T08:35:30;5.67;;;3.57;;
13455;SDS011;6800;50.940;6.940;2023-02-18T08:39:35;6.77;;;2.67;;
13455;SDS011;6800;50.940;6.940;2023-02-18T08:43:40;6.13;;;2.87;;
13455;SDS011;6800;50.940;6.940;2023-02-18T08:47:42;6.57;;;3.20;;
13455;SDS011;6800;50.940;6.940;2023-02-18T08:52:03;6.67;;;2.67;;
13455;SDS011;6800;50.940;6.940;2023-02-18T08:56:06;5.27;;;2.60;;
13455;SDS011;6800;50.940;6.940;2023-02-18T09:00:08;6.97;;;2.73;;
13455;SDS011;6800;50.940;6.940;2023-02-18T09:04:10;8.93;;;2.70;;
13455;SDS011;6800;50.940;6.940;2023-02-18T09:08:11;5.90;;;2.83;;
13455;SDS011;6800;50.940;6.940;2023-02-18T09:12:13;5.77;;;2.47;;
13455;SDS011;6800;50.940;6.940;2023-02-18T09:16:15;5.80;;;2.70;;
13455;SDS011;6800;50.940;6.940;2023-02-18T09:20:18;6.30;;;2.47;;
13455;SDS011;6800;50.940;6.940;2023-02-18T09:24:19;6.20;;;2.50;;
13455;SDS011;6800;50.940;6.940;2023-02-18T09:28:21;7.50;;;2.47;;
13455;SDS011;6800;50.940;6.940;2023-02-18T09:32:22;6.47;;;2.40;;
13455;SDS011;6800;50.940;6.940;2023-02-18T09:36:35;7.47;;;2.83;;
13455;SDS011;6800;50.940;6.940;2023-02-18T09:40:37;8.27;;;2.33;;
13455;SDS011;6800;50.940;6.940;2023-02-18T09:44:48;4.87;;;2.10;;
13455;SDS011;6800;50.940;6.940;2023-02-18T09:48:51;6.53;;;2.43;;
13455;SDS011;6800;50.940;6.940;2023-02-18T09:52:56;5.77;;;2.70;;
13455;SDS011;6800;50.940;6.940;2023-02-18T09:56:58;8.73;;;2.57;;
13455;SDS011;6800;50.940;6.940;2023-02-18T10:01:06;7.60;;;2.50;;
13455;SDS011;6800;50.940;6.940;2023-02-18T10:05:15;11.10;;;2.57;;
13455;SDS011;6800;50.940;6.940;2023-02-18T10:09:21;8.50;;;2.27;;
13455;SDS011;6800;50.940;6.940;2023-02-18T10:13:28;7.77;;;2.60;;
13455;SDS011;6800;50.940;6.940;2023-02-18T10:17:31;8.77;;;2.53;;
13455;SDS011;6800;50.940;6.940;2023-02-18T10:21:33;10.60;;;2.83;;
13455;SDS011;6800;50.940;6.940;2023-02-18T10:25:36;8.33;;;2.90;;
13455;SDS011;6800;50.940;6.940;2023-02-18T10:29:43;8.77;;;3.03;;
13455;SDS011;6800;50.940;6.940;2023-02-18T10:33:46;7.97;;;2.83;;
13455;SDS011;6800;50.940;6.940;2023-02-18T10:46:44;5.60;;;2.70;;
13455;SDS011;6800;50.940;6.940;2023-02-18T10:51:00;5.93;;;4.07;;
13455;SDS011;6800;50.940;6.940;2023-02-18T10:55:12;6.60;;;3.43;;
13455;SDS011;6800;50.940;6.940;2023-02-18T10:59:25;5.77;;;2.40;;
13455;SDS011;6800;50.940;6.940;2023-02-18T11:04:09;3.87;;;2.60;;
13455;SDS011;6800;50.940;6.940;2023-02-18T11:08:26;6.47;;;3.00;;
13455;SDS011;6800;50.940;6.940;2023-02-18T11:12:31;7.37;;;4.47;;
13455;SDS011;6800;50.940;6.940;2023-02-18T11:16:44;6.20;;;3.20;;
13455;SDS011;6800;50.940;6.940;2023-02-18T11:20:54;5.97;;;3.40;;
13455;SDS011;6800;50.940;6.940;2023-02-18T11:25:02;5.30;;;3.47;;
13455;SDS011;6800;50.940;6.940;2023-02-18T11:29:19;4.10;;;3.67;;
13455;SDS011;6800;50.940;6.940;2023-02-18T11:33:24;3.87;;;3.37;;
13455;SDS011;6800;50.940;6.940;2023-02-18T11:37:50;4.47;;;3.47;;
13455;SDS011;6800;50.940;6.940;2023-02-18T11:41:53;3.87;;;3.17;;
13455;SDS011;6800;50.940;6.940;2023-02-18T11:46:07;6.63;;;3.77;;
13455;SDS011;6800;50.940;6.940;2023-02-18T11:50:15;5.07;;;3.63;;
13455;SDS011;6800;50.940;6.940;2023-02-18T11:54:22;4.83;;;2.90;;
13455;SDS011;6800;50.940;6.940;2023-02-18T11:58:37;3.30;;;3.00;;
13455;SDS011;6800;50.940;6.940;2023-02-18T12:02:41;3.43;;;3.13;;
13455;SDS011;6800;50.940;6.940;2023-02-18T12:06:45;3.43;;;3.00;;
13455;SDS011;6800;50.940;6.940;2023-02-18T12:10:53;4.40;;;3.40;;
13455;SDS011;6800;50.940;6.940;2023-02-18T12:15:04;3.70;;;2.97;;
13455;SDS011;6800;50.940;6.940;2023-02-18T12:19:12;2.90;;;2.53;;
13455;SDS011;6800;50.940;6.940;2023-02-18T12:23:34;4.10;;;2.97;;
13455;SDS011;6800;50.940;6.940;2023-02-18T12:37:00;3.80;;;2.80;;
13455;SDS011;6800;50.940;6.940;2023-02-18T12:50:17;4.03;;;2.40;;
13455;SDS011;6800;50.940;6.940;2023-02-18T13:03:26;2.57;;;2.20;;
13455;SDS011;6800;50.940;6.940;2023-02-18T13:07:45;6.00;;;2.20;;
13455;SDS011;6800;50.940;6.940;2023-02-18T13:16:28;2.60;;;2.40;;
13455;SDS011;6800;50.940;6.940;2023-02-18T13:20:39;4.10;;;2.50;;
13455;SDS011;6800;50.940;6.940;2023-02-18T13:24:44;4.37;;;2.27;;
13455;SDS011;6800;50.940;6.940;2023-02-18T13:41:40;3.60;;;2.43;;
13455;SDS011;6800;50.940;6.940;2023-02-18T13:45:42;2.50;;;2.30;;
13455;SDS011;6800;50.940;6.940;2023-02-18T13:49:44;3.77;;;2.17;;
13455;SDS011;6800;50.940;6.940;2023-02-18T13:53:48;3.40;;;2.87;;
13455;SDS011;6800;50.940;6.940;2023-02-18T13:57:52;3.83;;;3.33;;
13455;SDS011;6800;50.940;6.940;2023-02-18T14:01:55;2.90;;;2.70;;
13455;SDS011;6800;50.940;6.940;2023-02-18T14:19:28;3.10;;;2.20;;
13455;SDS011;6800;50.940;6.940;2023-02-18T14:27:34;2.10;;;1.90;;
13455;SDS011;6800;50.940;6.940;2023-02-18T14:35:55;2.13;;;2.03;;
13455;SDS011;6800;50.940;6.940;2023-02-18T14:40:19;2.70;;;1.90;;
13455;SDS011;6800;50.940;6.940;2023-02-18T14:44:41;1.83;;;1.73;;
13455;SDS011;6800;50.940;6.940;2023-02-18T14:49:03;3.13;;;2.00;;
13455;SDS011;6800;50.940;6.940;2023-02-18T14:53:25;2.10;;;1.70;;
13455;SDS011;6800;50.940;6.940;2023-02-18T14:57:30;1.83;;;1.50;;
13455;SDS011;6800;50.940;6.940;2023-02-18T15:01:37;2.17;;;1.43;;
13455;SDS011;6800;50.940;6.940;2023-02-18T15:05:40;1.73;;;1.60;;
13455;SDS011;6800;50.940;6.940;2023-02-18T15:09:44;2.90;;;1.83;;
13455;SDS011;6800;50.940;6.940;2023-02-18T15:13:49;4.43;;;1.90;;
13455;SDS011;6800;50.940;6.940;2023-02-18T15:17:51;2.63;;;2.43;;
13455;SDS011;6800;50.940;6.940;2023-02-18T15:21:54;3.47;;;2.30;;
13455;SDS011;6800;50.940;6.940;2023-02-18T15:25:56;2.33;;;2.13;;
13455;SDS011;6800;50.940;6.940;2023-02-18T15:30:03;2.10;;;1.90;;
13455;SDS011;6800;50.940;6.940;2023-02-18T15:34:23;2.57;;;1.97;;
13455;SDS011;6800;50.940;6.940;2023-02-18T15:38:31;2.53;;;2.30;;
13455;SDS011;6800;50.940;6.940;2023-02-18T15:42:35;2.63;;;2.30;;
13455;SDS011;6800;50.940;6.940;2023-02-18T15:46:37;2.00;;;1.90;;
13455;SDS011;6800;50.940;6.940;2023-02-18T15:50:44;3.07;;;1.80;;
13455;SDS011;6800;50.940;6.940;2023-02-18T15:54:51;3.30;;;2.50;;
13455;SDS011;6800;50.940;6.940;2023-02-18T16:07:30;2.20;;;1.97;;
13455;SDS011;6800;50.940;6.940;2023-02-18T16:11:38;2.47;;;2.27;;
13455;SDS011;6800;50.940;6.940;2023-02-18T16:15:43;7.00;;;3.90;;
13455;SDS011;6800;50.940;6.940;2023-02-18T16:19:51;3.27;;;2.30;;
13455;SDS011;6800;50.940;6.940;2023-02-18T16:24:24;2.80;;;2.60;;
13455;SDS011;6800;50.940;6.940;2023-02-18T16:28:31;1.90;;;1.80;;
13455;SDS011;6800;50.940;6.940;2023-02-18T16:32:33;2.20;;;2.10;;
13455;SDS011;6800;50.940;6.940;2023-02-18T16:36:34;2.27;;;2.10;;
13455;SDS011;6800;50.940;6.940;2023-02-18T16:40:36;2.33;;;2.13;;
13455;SDS011;6800;50.940;6.940;2023-02-18T16:44:40;3.37;;;2.80;;
13455;SDS011;6800;50.940;6.940;2023-02-18T16:48:44;2.50;;;2.30;;
13455;SDS011;6800;50.940;6.940;2023-02-18T16:52:49;2.90;;;2.70;;
13455;SDS011;6800;50.940;6.940;2023-02-18T16:56:50;2.90;;;2.23;;
13455;SDS011;6800;50.940;6.940;2023-02-18T17:00:51;3.27;;;2.80;;
13455;SDS011;6800;50.940;6.940;2023-02-18T17:04:53;3.10;;;2.87;;
13455;SDS011;6800;50.940;6.940;2023-02-18T17:08:57;3.43;;;3.13;;
13455;SDS011;6800;50.940;6.940;2023-02-18T17:12:59;5.80;;;3.20;;
13455;SDS011;6800;50.940;6.940;2023-02-18T17:17:01;4.20;;;3.17;;
13455;SDS011;6800;50.940;6.940;2023-02-18T17:21:07;6.37;;;4.10;;
13455;SDS011;6800;50.940;6.940;2023-02-18T17:25:22;4.23;;;3.90;;
13455;SDS011;6800;50.940;6.940;2023-02-18T17:29:36;5.80;;;3.93;;
13455;SDS011;6800;50.940;6.940;2023-02-18T17:33:37;4.43;;;4.00;;
13455;SDS011;6800;50.940;6.940;2023-02-18T17:37:39;5.60;;;4.50;;
13455;SDS011;6800;50.940;6.940;2023-02-18T17:41:40;6.67;;;5.30;;
13455;SDS011;6800;50.940;6.940;2023-02-18T17:45:44;5.70;;;5.20;;
13455;SDS011;6800;50.940;6.940;2023-02-18T17:49:49;5.90;;;4.97;;
13455;SDS011;6800;50.940;6.940;2023-02-18T17:53:51;7.93;;;5.60;;
13455;SDS011;6800;50.940;6.940;2023-02-18T17:57:52;6.73;;;6.03;;
13455;SDS011;6800;50.940;6.940;2023-02-18T18:01:54;7.63;;;6.30;;
13455;SDS011;6800;50.940;6.940;2023-02-18T18:05:55;8.00;;;7.30;;
13455;SDS011;6800;50.940;6.940;2023-02-18T18:09:57;9.13;;;7.67;;
13455;SDS011;6800;50.940;6.940;2023-02-18T18:13:58;10.03;;;9.03;;
13455;SDS011;6800;50.940;6.940;2023-02-18T18:18:00;13.30;;;11.17;;
13455;SDS011;6800;50.940;6.940;2023-02-18T18:22:03;12.40;;;11.20;;
13455;SDS011;6800;50.940;6.940;2023-02-18T18:26:05;13.00;;;11.60;;
13455;SDS011;6800;50.940;6.940;2023-02-18T18:30:06;13.23;;;11.87;;
13455;SDS011;6800;50.940;6.940;2023-02-18T18:34:09;13.20;;;11.93;;
13455;SDS011;6800;50.940;6.940;2023-02-18T18:38:11;14.20;;;12.77;;
13455;SDS011;6800;50.940;6.940;2023-02-18T18:42:13;11.87;;;10.73;;
13455;SDS011;6800;50.940;6.940;2023-02-18T18:46:14;12.80;;;10.80;;
13455;SDS011;6800;50.940;6.940;2023-02-18T18:50:16;13.60;;;12.20;;
13455;SDS011;6800;50.940;6.940;2023-02-18T18:54:19;12.70;;;11.40;;
13455;SDS011;6800;50.940;6.940;2023-02-18T18:58:20;12.87;;;10.47;;
13455;SDS011;6800;50.940;6.940;2023-02-18T19:02:24;14.07;;;11.07;;
13455;SDS011;6800;50.940;6.940;2023-02-18T19:06:25;10.47;;;9.47;;
13455;SDS011;6800;50.940;6.940;2023-02-18T19:10:28;13.23;;;10.67;;
13455;SDS011;6800;50.940;6.940;2023-02-18T19:14:31;11.53;;;10.10;;
13455;SDS011;6800;50.940;6.940;2023-02-18T19:18:33;10.67;;;9.70;;
13455;SDS011;6800;50.940;6.940;2023-02-18T19:22:35;10.17;;;9.23;;
13455;SDS011;6800;50.940;6.940;2023-02-18T19:26:36;9.83;;;8.93;;
13455;SDS011;6800;50.940;6.940;2023-02-18T19:30:38;11.70;;;10.50;;
13455;SDS011;6800;50.940;6.940;2023-02-18T19:34:41;11.63;;;10.43;;
13455;SDS011;6800;50.940;6.940;2023-02-18T19:38:43;11.67;;;9.70;;
13455;SDS011;6800;50.940;6.940;2023-02-18T19:42:46;11.20;;;10.20;;
13455;SDS011;6800;50.940;6.940;2023-02-18T19:46:47;9.20;;;8.40;;
13455;SDS011;6800;50.940;6.940;2023-02-18T19:50:49;11.30;;;10.20;;
13455;SDS011;6800;50.940;6.940;2023-02-18T19:54:50;10.37;;;9.47;;
13455;SDS011;6800;50.940;6.940;2023-02-18T19:58:55;11.03;;;9.83;;
13455;SDS011;6800;50.940;6.940;2023-02-18T20:02:56;10.73;;;9.77;;
13455;SDS011;6800;50.940;6.940;2023-02-18T20:06:58;8.83;;;8.03;;
13455;SDS011;6800;50.940;6.940;2023-02-18T20:10:59;11.13;;;9.87;;
13455;SDS011;6800;50.940;6.940;2023-02-18T20:15:01;8.97;;;8.17;;
13455;SDS011;6800;50.940;6.940;2023-02-18T20:19:02;8.73;;;7.83;;
13455;SDS011;6800;50.940;6.940;2023-02-18T20:23:04;8.37;;;7.67;;
13455;SDS011;6800;50.940;6.940;2023-02-18T20:27:06;8.73;;;7.27;;
13455;SDS011;6800;50.940;6.940;2023-02-18T20:31:09;6.60;;;6.00;;
13455;SDS011;6800;50.940;6.940;2023-02-18T20:35:13;7.20;;;6.50;;
13455;SDS011;6800;50.940;6.940;2023-02-18T20:39:14;6.97;;;6.20;;
13455;SDS011;6800;50.940;6.940;2023-02-18T20:43:17;7.07;;;6.00;;
13455;SDS011;6800;50.940;6.940;2023-02-18T20:47:19;9.13;;;7.03;;
13455;SDS011;6800;50.940;6.940;2023-02-18T20:51:20;10.27;;;7.23;;
13455;SDS011;6800;50.940;6.940;2023-02-18T20:55:22;6.83;;;5.57;;
13455;SDS011;6800;50.940;6.940;2023-02-18T20:59:24;8.93;;;6.63;;
13455;SDS011;6800;50.940;6.940;2023-02-18T21:03:26;8.23;;;7.07;;
13455;SDS011;6800;50.940;6.940;2023-02-18T21:07:28;9.80;;;8.80;;
13455;SDS011;6800;50.940;6.940;2023-02-18T21:11:29;11.07;;;9.43;;
13455;SDS011;6800;50.940;6.940;2023-02-18T21:15:31;10.80;;;9.33;;
13455;SDS011;6800;50.940;6.940;2023-02-18T21:19:32;6.10;;;5.50;;
13455;SDS011;6800;50.940;6.940;2023-02-18T21:23:34;8.03;;;7.17;;
13455;SDS011;6800;50.940;6.940;2023-02-18T21:27:35;9.93;;;8.93;;
13455;SDS011;6800;50.940;6.940;2023-02-18T21:31:38;10.33;;;9.00;;
13455;SDS011;6800;50.940;6.940;2023-02-18T21:35:41;15.43;;;13.83;;
13455;SDS011;6800;50.940;6.940;2023-02-18T21:39:42;10.00;;;9.00;;
13455;SDS011;6800;50.940;6.940;2023-02-18T21:43:44;7.57;;;6.87;;
13455;SDS011;6800;50.940;6.940;2023-02-18T21:47:46;11.93;;;10.70;;
13455;SDS011;6800;50.940;6.940;2023-02-18T21:51:48;10.50;;;8.00;;
13455;SDS011;6800;50.940;6.940;2023-02-18T21:56:11;13.40;;;10.17;;
13455;SDS011;6800;50.940;6.940;2023-02-18T22:00:12;10.30;;;7.43;;
13455;SDS011;6800;50.940;6.940;2023-02-18T22:04:21;16.10;;;11.93;;
13455;SDS011;6800;50.940;6.940;2023-02-18T22:08:23;9.00;;;7.60;;
13455;SDS011;6800;50.940;6.940;2023-02-18T22:12:24;13.87;;;10.50;;
13455;SDS011;6800;50.940;6.940;2023-02-18T22:16:26;7.93;;;7.13;;
13455;SDS011;6800;50.940;6.940;2023-02-18T22:20:28;9.73;;;8.00;;
13455;SDS011;6800;50.940;6.940;2023-02-18T22:24:30;11.10;;;7.90;;
13455;SDS011;6800;50.940;6.940;2023-02-18T22:28:32;12.63;;;9.80;;
13455;SDS011;6800;50.940;6.940;2023-02-18T22:32:34;14.13;;;12.50;;
13455;SDS011;6800;50.940;6.940;2023-02-18T22:36:35;14.60;;;13.03;;
13455;SDS011;6800;50.940;6.940;2023-02-18T22:40:37;18.10;;;14.10;;
13455;SDS011;6800;50.940;6.940;2023-02-18T22:44:38;15.67;;;13.07;;
13455;SDS011;6800;50.940;6.940;2023-02-18T22:48:39;17.83;;;16.03;;
13455;SDS011;6800;50.940;6.940;2023-02-18T22:52:41;17.30;;;14.97;;
13455;SDS011;6800;50.940;6.940;2023-02-18T22:56:43;21.53;;;15.10;;
13455;SDS011;6800;50.940;6.940;2023-02-18T23:00:47;15.80;;;13.13;;
13455;SDS011;6800;50.940;6.940;2023-02-18T23:04:49;13.93;;;11.47;;
13455;SDS011;6800;50.940;6.940;2023-02-18T23:08:52;17.40;;;13.33;;
13455;SDS011;6800;50.940;6.940;2023-02-18T23:12:54;19.17;;;12.77;;
13455;SDS011;6800;50.940;6.940;2023-02-18T23:16:59;15.87;;;10.77;;
13455;SDS011;6800;50.940;6.940;2023-02-18T23:21:14;22.60;;;17.13;;
13455;SDS011;6800;50.940;6.940;2023-02-18T23:25:18;12.00;;;10.33;;
13455;SDS011;6800;50.940;6.940;2023-02-18T23:29:20;18.27;;;11.77;;
13455;SDS011;6800;50.940;6.940;2023-02-18T23:33:21;18.63;;;14.60;;
13455;SDS011;6800;50.940;6.940;2023-02-18T23:37:22;20.33;;;13.83;;
13455;SDS011;6800;50.940;6.940;2023-02-18T23:41:44;16.67;;;11.90;;
13455;SDS011;6800;50.940;6.940;2023-02-18T23:45:46;14.10;;;9.57;;
13455;SDS011;6800;50.940;6.940;2023-02-18T23:49:47;14.10;;;11.40;;
13455;SDS011;6800;50.940;6.940;2023-02-18T23:53:49;17.80;;;13.13;;
13455;SDS011;6800;50.940;6.940;2023-02-18T23:57:50;24.33;;;18.27;;
